Time;durP1;ratioP1;P1;durP2;ratioP2;P2;SDS_P1;SDS_P2;PMS_P1;PMS_P2;Temp;Humidity;BMP_temperature;BMP_pressure;BME280_temperature;BME280_humidity;BME280_pressure;Samples;Min_cycle;Max_cycle;Signal;HPM_P1;HPM_P2
2022/03/24 00:02:25;;;;;;;13.98;9.73;;;8.90;55.60;;;;;;4915296;29;20054;-82
2022/03/24 00:04:51;;;;;;;12.52;8.68;;;8.90;55.60;;;;;;4928900;29;20055;-82
2022/03/24 00:07:18;;;;;;;17.95;9.95;;;8.90;55.70;;;;;;4950985;28;20036;-82
2022/03/24 00:09:44;;;;;;;15.55;8.90;;;8.80;55.70;;;;;;4925978;29;20051;-83
2022/03/24 00:12:11;;;;;;;11.77;8.70;;;8.80;55.80;;;;;;4940780;29;20035;-82
2022/03/24 00:14:37;;;;;;;17.02;9.82;;;8.80;55.90;;;;;;4938842;29;20509;-82
2022/03/24 00:17:04;;;;;;;13.32;9.55;;;8.80;56.00;;;;;;4922378;29;20039;-82
2022/03/24 00:19:31;;;;;;;13.38;9.57;;;8.70;56.00;;;;;;4923607;29;20036;-82
2022/03/24 00:21:57;;;;;;;14.68;10.00;;;8.70;56.10;;;;;;4936868;29;20050;-82
2022/03/24 00:24:24;;;;;;;22.00;11.52;;;8.70;56.30;;;;;;4936744;29;20046;-82
2022/03/24 00:26:50;;;;;;;14.90;10.68;;;8.60;56.40;;;;;;4937138;28;20047;-83
2022/03/24 00:29:17;;;;;;;15.30;10.27;;;8.60;56.50;;;;;;4937282;29;20046;-83
2022/03/24 00:31:43;;;;;;;17.05;10.95;;;8.60;56.70;;;;;;4929444;29;20062;-82
2022/03/24 00:34:10;;;;;;;14.48;10.18;;;8.60;56.70;;;;;;4904765;29;20039;-82
2022/03/24 00:36:39;;;;;;;15.60;10.30;;;8.50;56.70;;;;;;4917226;29;20043;-82
2022/03/24 00:39:26;;;;;;;18.02;11.43;;;8.50;56.80;;;;;;4953821;29;20046;-82
2022/03/24 00:41:53;;;;;;;15.23;10.27;;;8.50;56.80;;;;;;4950212;28;20039;-83
2022/03/24 00:44:21;;;;;;;15.40;9.73;;;8.50;56.80;;;;;;4929255;29;20457;-83
2022/03/24 00:46:50;;;;;;;14.55;9.35;;;8.50;56.80;;;;;;4907955;29;20467;-83
2022/03/24 00:49:22;;;;;;;12.70;8.80;;;8.40;56.80;;;;;;4926368;29;20043;-83
2022/03/24 00:51:53;;;;;;;12.90;8.63;;;8.40;56.90;;;;;;4943196;29;20048;-83
2022/03/24 00:54:22;;;;;;;13.60;9.43;;;8.30;56.90;;;;;;4925501;29;20515;-80
2022/03/24 00:56:59;;;;;;;16.70;10.10;;;8.30;56.90;;;;;;4925015;29;20054;-80
2022/03/24 00:59:28;;;;;;;15.32;9.93;;;8.30;57.00;;;;;;4925304;29;20048;-80
2022/03/24 01:01:55;;;;;;;15.15;9.90;;;8.30;57.10;;;;;;4930713;29;20051;-83
2022/03/24 01:04:34;;;;;;;16.38;11.10;;;8.30;57.30;;;;;;4921210;29;20518;-82
2022/03/24 01:07:12;;;;;;;17.25;11.32;;;8.20;57.30;;;;;;4906739;29;20042;-83
2022/03/24 01:09:39;;;;;;;18.63;11.43;;;8.20;57.30;;;;;;4943615;29;20044;-82
2022/03/24 01:12:09;;;;;;;16.40;10.68;;;8.20;57.40;;;;;;4905600;29;20062;-82
2022/03/24 01:14:39;;;;;;;14.80;10.20;;;8.10;57.50;;;;;;4924250;29;20046;-83
2022/03/24 01:17:07;;;;;;;18.50;11.02;;;8.10;57.60;;;;;;4928735;29;20036;-82
2022/03/24 01:19:42;;;;;;;13.15;9.18;;;8.00;57.70;;;;;;4935736;29;20044;-82
2022/03/24 01:22:19;;;;;;;16.25;9.90;;;8.00;57.90;;;;;;4926579;29;20494;-82
2022/03/24 01:24:53;;;;;;;17.13;10.60;;;8.00;58.10;;;;;;4936155;29;20043;-83
2022/03/24 01:27:26;;;;;;;17.25;10.02;;;8.00;58.20;;;;;;4920655;29;20052;-82
2022/03/24 01:29:59;;;;;;;15.55;9.25;;;7.90;58.40;;;;;;4896893;29;20058;-83
2022/03/24 01:32:31;;;;;;;16.98;10.23;;;7.90;58.60;;;;;;4937916;29;20052;-82
2022/03/24 01:34:58;;;;;;;15.63;10.40;;;7.90;58.60;;;;;;4904613;29;20597;-83
2022/03/24 01:37:25;;;;;;;16.13;8.88;;;7.90;58.80;;;;;;4907280;29;20044;-83
2022/03/24 01:39:51;;;;;;;23.92;10.35;;;7.90;59.00;;;;;;4915504;29;20032;-83
2022/03/24 01:42:19;;;;;;;18.92;10.20;;;7.90;59.00;;;;;;4912899;29;20055;-82
2022/03/24 01:44:47;;;;;;;14.23;8.80;;;7.90;59.20;;;;;;4933320;29;20036;-83
2022/03/24 01:47:15;;;;;;;15.98;9.15;;;7.90;59.20;;;;;;4903664;29;20492;-83
2022/03/24 01:49:46;;;;;;;19.00;10.30;;;7.90;59.40;;;;;;4905318;28;20514;-82
2022/03/24 01:52:18;;;;;;;17.63;9.57;;;7.90;59.70;;;;;;4921787;29;20487;-83
2022/03/24 01:54:47;;;;;;;14.52;9.55;;;7.90;59.70;;;;;;4924091;29;20043;-83
2022/03/24 01:57:15;;;;;;;14.27;9.93;;;7.80;59.70;;;;;;4915645;29;20035;-82
2022/03/24 01:59:42;;;;;;;17.65;10.95;;;7.80;59.80;;;;;;4929305;29;20047;-83
2022/03/24 02:02:10;;;;;;;12.63;8.57;;;7.80;60.00;;;;;;4905426;29;20047;-82
2022/03/24 02:04:37;;;;;;;15.02;10.30;;;7.80;60.10;;;;;;4914911;28;20054;-83
2022/03/24 02:07:08;;;;;;;18.65;11.02;;;7.80;60.10;;;;;;4917439;29;20039;-82
2022/03/24 02:09:38;;;;;;;16.80;11.73;;;7.70;60.40;;;;;;4919472;28;20059;-82
2022/03/24 02:12:07;;;;;;;20.83;11.38;;;7.70;60.90;;;;;;4933101;29;20134;-80
2022/03/24 02:14:37;;;;;;;17.65;11.52;;;7.60;60.80;;;;;;4934273;29;20384;-80
2022/03/24 02:17:05;;;;;;;20.52;11.25;;;7.60;60.90;;;;;;4913470;29;20510;-79
2022/03/24 02:19:34;;;;;;;19.45;11.45;;;7.60;61.60;;;;;;4942641;28;20039;-79
2022/03/24 02:22:08;;;;;;;15.85;10.43;;;7.60;61.10;;;;;;4915020;29;20062;-79
2022/03/24 02:24:37;;;;;;;21.40;12.07;;;7.60;61.40;;;;;;4957930;28;20394;-79
2022/03/24 02:27:04;;;;;;;17.53;11.13;;;7.60;61.50;;;;;;4917646;28;20035;-79
2022/03/24 02:29:31;;;;;;;18.40;11.52;;;7.60;61.50;;;;;;4928295;29;20506;-79
2022/03/24 02:31:57;;;;;;;18.58;10.90;;;7.60;61.50;;;;;;4912249;29;20050;-78
2022/03/24 02:34:40;;;;;;;16.98;10.65;;;7.60;61.40;;;;;;4925215;29;20039;-79
2022/03/24 02:37:12;;;;;;;18.83;11.20;;;7.60;61.50;;;;;;4928714;29;20039;-79
2022/03/24 02:39:40;;;;;;;18.00;10.80;;;7.50;61.50;;;;;;4937454;28;20494;-79
2022/03/24 02:42:09;;;;;;;15.25;9.18;;;7.50;61.50;;;;;;4922561;29;20047;-79
2022/03/24 02:44:36;;;;;;;16.17;9.10;;;7.50;61.50;;;;;;4943087;28;20043;-79
2022/03/24 02:47:06;;;;;;;16.58;8.70;;;7.50;61.50;;;;;;4939984;28;20377;-79
2022/03/24 02:49:33;;;;;;;15.53;9.93;;;7.50;61.50;;;;;;4944610;28;20043;-79
2022/03/24 02:52:00;;;;;;;16.65;10.40;;;7.50;61.50;;;;;;4927377;29;20052;-79
2022/03/24 02:54:28;;;;;;;19.25;10.95;;;7.40;61.60;;;;;;4912229;29;20491;-79
2022/03/24 02:56:55;;;;;;;16.95;11.80;;;7.40;61.70;;;;;;4941790;29;20040;-79
2022/03/24 02:59:22;;;;;;;19.33;11.97;;;7.40;62.40;;;;;;4926857;29;20043;-79
2022/03/24 03:02:06;;;;;;;17.60;9.03;;;7.40;62.00;;;;;;4934760;29;20050;-79
2022/03/24 03:04:34;;;;;;;18.90;10.80;;;7.40;62.00;;;;;;4923491;29;20051;-79
2022/03/24 03:07:02;;;;;;;18.45;10.98;;;7.40;61.90;;;;;;4924319;29;20490;-79
2022/03/24 03:09:30;;;;;;;16.63;10.57;;;7.30;61.90;;;;;;4924698;29;20043;-79
2022/03/24 03:11:58;;;;;;;17.50;11.53;;;7.30;61.90;;;;;;4894861;29;20051;-79
2022/03/24 03:14:27;;;;;;;16.42;10.95;;;7.30;62.00;;;;;;4928221;29;20038;-79
2022/03/24 03:16:53;;;;;;;17.00;10.00;;;7.30;62.00;;;;;;4923364;29;20040;-79
2022/03/24 03:19:20;;;;;;;18.77;10.75;;;7.30;62.00;;;;;;4892825;29;20078;-79
2022/03/24 03:21:51;;;;;;;16.23;10.33;;;7.30;62.10;;;;;;4907877;29;20043;-78
2022/03/24 03:24:18;;;;;;;20.73;10.13;;;7.20;62.10;;;;;;4922278;29;20036;-80
2022/03/24 03:26:46;;;;;;;18.77;11.45;;;7.20;62.20;;;;;;4910507;29;20043;-80
2022/03/24 03:29:13;;;;;;;17.50;11.37;;;7.20;62.30;;;;;;4927396;29;20039;-80
2022/03/24 03:31:39;;;;;;;20.73;12.60;;;7.20;62.40;;;;;;4931691;29;20074;-79
2022/03/24 03:34:08;;;;;;;17.00;10.90;;;7.20;62.40;;;;;;4939236;29;20066;-79
2022/03/24 03:36:37;;;;;;;16.23;10.43;;;7.30;62.40;;;;;;4906352;29;20040;-79
2022/03/24 03:39:06;;;;;;;17.27;9.77;;;7.20;62.20;;;;;;4901490;29;20058;-79
2022/03/24 03:41:34;;;;;;;17.60;11.13;;;7.20;62.40;;;;;;4943317;29;20042;-79
2022/03/24 03:44:01;;;;;;;20.40;12.18;;;7.20;62.50;;;;;;4937849;29;20117;-79
2022/03/24 03:46:27;;;;;;;18.70;10.43;;;7.20;62.60;;;;;;4921738;29;20510;-79
2022/03/24 03:48:54;;;;;;;23.10;13.90;;;7.10;62.60;;;;;;4892312;29;20039;-79
2022/03/24 03:51:20;;;;;;;23.75;13.32;;;7.10;63.00;;;;;;4928563;29;20437;-79
2022/03/24 03:53:46;;;;;;;20.35;12.60;;;7.10;63.00;;;;;;4904714;29;20042;-80
2022/03/24 03:56:13;;;;;;;18.80;12.55;;;7.10;63.10;;;;;;4908616;29;20043;-80
2022/03/24 03:58:40;;;;;;;16.88;11.60;;;7.10;63.30;;;;;;4936532;29;20035;-79
2022/03/24 04:01:08;;;;;;;18.33;11.93;;;7.00;63.30;;;;;;4939924;28;20034;-79
2022/03/24 04:03:38;;;;;;;19.70;11.47;;;7.00;63.40;;;;;;4920547;29;20395;-79
2022/03/24 04:06:09;;;;;;;21.73;12.50;;;7.00;63.50;;;;;;4939123;28;20035;-82
2022/03/24 04:08:40;;;;;;;20.43;11.80;;;6.90;63.50;;;;;;4937200;29;20035;-81
2022/03/24 04:11:08;;;;;;;21.77;13.02;;;6.90;63.60;;;;;;4939523;29;20034;-82
2022/03/24 04:13:39;;;;;;;19.23;12.00;;;6.90;63.80;;;;;;4934170;29;20032;-82
2022/03/24 04:16:11;;;;;;;19.40;11.90;;;6.80;63.90;;;;;;4903712;29;20047;-81
2022/03/24 04:18:41;;;;;;;17.30;10.97;;;6.80;63.80;;;;;;4920159;29;20046;-80
2022/03/24 04:21:08;;;;;;;18.73;11.07;;;6.80;64.00;;;;;;4938693;29;20027;-79
2022/03/24 04:23:37;;;;;;;18.77;12.85;;;6.80;64.20;;;;;;4939067;28;20027;-79
2022/03/24 04:26:04;;;;;;;19.17;11.43;;;6.80;64.90;;;;;;4935477;29;20475;-79
2022/03/24 04:28:31;;;;;;;19.30;12.87;;;6.80;64.20;;;;;;4938904;28;20059;-79
2022/03/24 04:30:59;;;;;;;21.17;13.50;;;6.80;64.40;;;;;;4930434;29;20035;-80
2022/03/24 04:33:26;;;;;;;19.60;13.93;;;6.90;64.40;;;;;;4920666;29;20046;-80
2022/03/24 04:35:52;;;;;;;21.27;13.53;;;6.90;65.10;;;;;;4951731;29;20050;-79
2022/03/24 04:38:19;;;;;;;24.50;14.60;;;6.90;64.40;;;;;;4938857;28;20054;-80
2022/03/24 04:40:46;;;;;;;24.40;14.80;;;7.00;64.90;;;;;;4923743;29;20047;-79
2022/03/24 04:43:13;;;;;;;20.13;13.90;;;7.00;64.10;;;;;;4953995;28;20043;-79
2022/03/24 04:45:40;;;;;;;21.27;13.07;;;7.00;64.10;;;;;;4920008;29;20305;-80
2022/03/24 04:48:06;;;;;;;20.67;13.63;;;7.00;64.00;;;;;;4938141;28;20043;-80
2022/03/24 04:50:33;;;;;;;21.30;14.73;;;7.00;64.10;;;;;;4936504;29;20502;-80
2022/03/24 04:52:59;;;;;;;23.23;15.77;;;7.00;64.20;;;;;;4923724;29;20058;-79
2022/03/24 04:55:25;;;;;;;21.23;14.23;;;7.00;64.10;;;;;;4908857;29;20043;-79
2022/03/24 04:57:52;;;;;;;13.67;8.83;;;7.00;64.00;;;;;;4926289;29;20506;-80
2022/03/24 05:00:19;;;;;;;17.03;10.67;;;6.90;63.80;;;;;;4921987;29;20032;-79
2022/03/24 05:02:47;;;;;;;19.80;13.23;;;6.90;63.80;;;;;;4899651;29;20042;-79
2022/03/24 05:05:16;;;;;;;18.83;11.30;;;6.90;63.80;;;;;;4924849;29;20418;-79
2022/03/24 05:07:42;;;;;;;16.67;9.60;;;6.90;63.80;;;;;;4907946;29;20051;-79
2022/03/24 05:10:10;;;;;;;19.90;11.27;;;6.80;63.90;;;;;;4926660;29;20055;-80
2022/03/24 05:12:42;;;;;;;20.27;11.47;;;6.80;63.90;;;;;;4932804;29;20043;-79
2022/03/24 05:15:11;;;;;;;14.80;9.23;;;6.70;63.90;;;;;;4919921;29;20070;-80
2022/03/24 05:17:39;;;;;;;16.37;10.37;;;6.60;64.00;;;;;;4933856;29;20055;-80
2022/03/24 05:20:10;;;;;;;20.50;11.77;;;6.50;64.10;;;;;;4926489;29;20562;-80
2022/03/24 05:22:37;;;;;;;18.90;11.87;;;6.50;64.50;;;;;;4920208;29;20047;-79
2022/03/24 05:25:05;;;;;;;19.43;12.00;;;6.40;64.60;;;;;;4889634;29;20513;-79
2022/03/24 05:27:32;;;;;;;19.07;12.07;;;6.30;64.90;;;;;;4924791;29;20036;-79
2022/03/24 05:30:03;;;;;;;15.67;9.63;;;6.30;65.00;;;;;;4932657;29;20094;-79
2022/03/24 05:32:37;;;;;;;13.20;9.27;;;6.20;65.00;;;;;;4908367;29;20040;-79
2022/03/24 05:35:04;;;;;;;17.67;10.60;;;6.20;65.00;;;;;;4923757;29;20052;-78
2022/03/24 05:37:31;;;;;;;17.00;10.87;;;6.20;65.10;;;;;;4903753;29;20047;-77
2022/03/24 05:39:57;;;;;;;17.63;11.73;;;6.30;65.10;;;;;;4905645;29;20047;-78
2022/03/24 05:42:25;;;;;;;18.87;11.63;;;6.30;65.10;;;;;;4892870;29;20040;-78
2022/03/24 05:44:51;;;;;;;20.23;12.73;;;6.30;65.00;;;;;;4920125;29;20055;-78
2022/03/24 05:47:18;;;;;;;22.37;14.47;;;6.40;65.10;;;;;;4893915;29;20036;-77
2022/03/24 05:49:44;;;;;;;22.90;14.53;;;6.40;65.00;;;;;;4890021;29;20039;-77
2022/03/24 05:52:17;;;;;;;23.98;14.90;;;6.50;65.00;;;;;;4939231;29;20497;-79
2022/03/24 05:54:43;;;;;;;23.00;14.33;;;6.50;64.90;;;;;;4919961;29;20055;-80
2022/03/24 05:57:10;;;;;;;20.83;13.13;;;6.50;64.80;;;;;;4939162;29;20032;-80
2022/03/24 05:59:37;;;;;;;24.90;12.07;;;6.50;64.90;;;;;;4915663;29;20464;-80
2022/03/24 06:02:04;;;;;;;21.17;12.23;;;6.50;64.90;;;;;;4911113;29;20051;-80
2022/03/24 06:04:31;;;;;;;20.53;12.97;;;6.50;65.20;;;;;;4904904;29;20439;-80
2022/03/24 06:06:58;;;;;;;19.00;11.80;;;6.50;65.30;;;;;;4935178;29;20039;-80
2022/03/24 06:09:26;;;;;;;19.00;12.50;;;6.60;65.30;;;;;;4911917;29;20040;-80
2022/03/24 06:11:53;;;;;;;19.50;12.97;;;6.60;65.30;;;;;;4919376;29;20032;-80
2022/03/24 06:14:20;;;;;;;20.93;13.13;;;6.70;65.20;;;;;;4911309;29;20055;-80
2022/03/24 06:16:47;;;;;;;22.83;14.57;;;6.80;65.10;;;;;;4922421;29;20039;-80
2022/03/24 06:19:15;;;;;;;25.73;15.77;;;7.00;65.10;;;;;;4950652;28;20035;-80
2022/03/24 06:21:42;;;;;;;26.60;16.60;;;7.10;64.90;;;;;;4921875;29;20518;-80
2022/03/24 06:24:08;;;;;;;21.67;14.33;;;7.30;65.00;;;;;;4936459;29;20032;-80
2022/03/24 06:26:35;;;;;;;23.07;14.43;;;7.40;64.80;;;;;;4921291;29;20401;-81
2022/03/24 06:29:02;;;;;;;24.97;15.17;;;7.60;64.70;;;;;;4919659;29;20039;-80
2022/03/24 06:31:30;;;;;;;24.60;15.70;;;7.70;64.40;;;;;;4926305;29;20364;-82
2022/03/24 06:34:00;;;;;;;26.33;15.40;;;7.90;64.30;;;;;;4927671;29;20032;-80
2022/03/24 06:36:27;;;;;;;23.60;15.57;;;8.00;64.20;;;;;;4917333;29;20364;-80
2022/03/24 06:38:54;;;;;;;24.27;15.60;;;8.10;64.10;;;;;;4944150;29;20031;-80
2022/03/24 06:41:21;;;;;;;24.65;16.48;;;8.20;64.00;;;;;;4941784;29;20054;-80
2022/03/24 06:43:47;;;;;;;23.47;15.43;;;8.30;63.90;;;;;;4923688;29;20396;-80
2022/03/24 06:46:14;;;;;;;24.15;16.58;;;8.50;63.70;;;;;;4934543;29;20040;-80
2022/03/24 06:48:41;;;;;;;22.40;14.85;;;8.60;63.60;;;;;;4935121;29;20035;-80
2022/03/24 06:51:17;;;;;;;22.17;14.75;;;8.70;63.40;;;;;;4942107;28;20058;-80
2022/03/24 06:54:04;;;;;;;26.00;15.65;;;8.90;63.20;;;;;;4931761;29;20395;-80
2022/03/24 06:56:39;;;;;;;21.33;13.43;;;9.00;63.10;;;;;;4923747;29;20039;-80
2022/03/24 06:59:07;;;;;;;27.15;17.45;;;9.10;63.00;;;;;;4954513;29;20378;-80
2022/03/24 07:01:40;;;;;;;24.25;14.95;;;9.20;63.00;;;;;;4921663;29;20047;-80
2022/03/24 07:04:11;;;;;;;25.10;16.35;;;9.30;62.90;;;;;;4941057;29;20809;-80
2022/03/24 07:06:38;;;;;;;28.50;16.92;;;9.40;63.00;;;;;;4953618;29;20043;-81
2022/03/24 07:09:05;;;;;;;29.15;18.40;;;9.50;63.00;;;;;;4955336;29;20043;-79
2022/03/24 07:11:33;;;;;;;27.70;17.70;;;9.70;63.00;;;;;;4930429;29;20475;-79
2022/03/24 07:14:05;;;;;;;29.48;18.05;;;9.80;62.90;;;;;;4943572;29;20039;-79
2022/03/24 07:16:32;;;;;;;29.15;18.25;;;9.90;62.70;;;;;;4941485;29;20042;-79
2022/03/24 07:18:58;;;;;;;28.90;18.77;;;10.10;62.60;;;;;;4955320;28;20533;-79
2022/03/24 07:21:25;;;;;;;23.17;16.25;;;10.20;62.30;;;;;;4909220;29;20050;-79
2022/03/24 07:23:51;;;;;;;21.10;15.57;;;10.40;62.10;;;;;;4913010;29;20054;-79
2022/03/24 07:26:18;;;;;;;25.98;16.95;;;10.50;61.70;;;;;;4927274;29;21216;-79
2022/03/24 07:28:44;;;;;;;24.63;17.35;;;10.60;61.40;;;;;;4909136;29;20031;-79
2022/03/24 07:31:15;;;;;;;26.45;16.85;;;10.80;61.10;;;;;;4920983;29;20491;-79
2022/03/24 07:33:46;;;;;;;22.02;14.70;;;10.90;60.80;;;;;;4921815;29;20051;-79
2022/03/24 07:36:14;;;;;;;21.70;15.70;;;11.10;60.40;;;;;;4942084;29;20039;-79
2022/03/24 07:38:40;;;;;;;20.85;14.65;;;11.30;60.20;;;;;;4919057;29;20062;-79
2022/03/24 07:41:07;;;;;;;26.35;18.20;;;11.40;59.90;;;;;;4916506;28;20495;-78
2022/03/24 07:43:34;;;;;;;25.67;16.05;;;11.60;59.50;;;;;;4911957;29;20041;-79
2022/03/24 07:46:01;;;;;;;25.27;16.55;;;11.80;59.20;;;;;;4938466;29;20047;-79
2022/03/24 07:48:27;;;;;;;24.48;17.23;;;12.00;58.90;;;;;;4906312;29;20043;-79
2022/03/24 07:50:56;;;;;;;21.77;15.80;;;12.20;58.70;;;;;;4924185;28;20505;-79
2022/03/24 07:53:27;;;;;;;22.63;15.63;;;12.40;58.40;;;;;;4941706;29;20042;-79
2022/03/24 07:55:55;;;;;;;22.30;16.02;;;12.60;58.20;;;;;;4929822;29;20039;-79
2022/03/24 07:58:22;;;;;;;25.40;17.13;;;12.80;57.90;;;;;;4946432;28;20403;-80
2022/03/24 08:00:49;;;;;;;23.55;16.23;;;12.90;57.50;;;;;;4915400;28;20038;-79
2022/03/24 08:03:18;;;;;;;24.95;17.10;;;13.10;57.30;;;;;;4918218;29;20058;-79
2022/03/24 08:05:46;;;;;;;24.02;16.27;;;13.30;57.00;;;;;;4932046;29;20054;-79
2022/03/24 08:08:14;;;;;;;22.02;16.58;;;13.50;56.80;;;;;;4927299;28;20382;-79
2022/03/24 08:10:42;;;;;;;20.23;15.05;;;13.70;56.60;;;;;;4937248;29;20082;-79
2022/03/24 08:13:10;;;;;;;18.15;13.60;;;13.80;56.50;;;;;;4923527;28;20043;-79
2022/03/24 08:15:38;;;;;;;21.52;15.43;;;14.00;56.30;;;;;;4944689;28;20047;-79
2022/03/24 08:18:05;;;;;;;20.27;16.58;;;14.10;56.10;;;;;;4937388;28;20054;-79
2022/03/24 08:20:33;;;;;;;20.83;15.88;;;14.30;55.70;;;;;;4927927;29;20047;-79
2022/03/24 08:23:00;;;;;;;25.75;17.65;;;14.40;55.30;;;;;;4919966;28;20398;-80
2022/03/24 08:25:26;;;;;;;20.45;16.70;;;14.50;55.00;;;;;;4923016;28;20516;-80
2022/03/24 08:27:53;;;;;;;22.45;17.40;;;14.60;54.70;;;;;;4940984;28;20026;-80
2022/03/24 08:30:19;;;;;;;21.42;15.65;;;14.70;54.50;;;;;;4911725;29;20032;-81
2022/03/24 08:32:45;;;;;;;21.83;17.45;;;14.80;54.30;;;;;;4934242;29;20050;-82
2022/03/24 08:35:12;;;;;;;18.23;13.65;;;14.90;53.90;;;;;;4915113;28;20036;-79
2022/03/24 08:37:38;;;;;;;19.48;15.48;;;15.10;53.90;;;;;;4910260;29;20394;-80
2022/03/24 08:40:06;;;;;;;20.58;15.77;;;15.30;53.30;;;;;;4923114;29;20030;-80
2022/03/24 08:42:33;;;;;;;19.23;14.43;;;15.40;53.30;;;;;;4948920;28;20740;-79
2022/03/24 08:45:00;;;;;;;17.15;14.30;;;15.60;53.10;;;;;;4935228;28;20042;-78
2022/03/24 08:47:26;;;;;;;27.70;18.52;;;15.70;52.90;;;;;;4927248;29;20046;-77
2022/03/24 08:49:55;;;;;;;25.17;19.38;;;15.90;51.90;;;;;;4907405;29;20034;-78
2022/03/24 08:52:22;;;;;;;19.05;15.88;;;16.00;50.70;;;;;;4924884;29;20070;-78
2022/03/24 08:54:49;;;;;;;20.25;16.35;;;16.10;50.50;;;;;;4924914;28;20505;-78
2022/03/24 08:57:25;;;;;;;19.95;15.13;;;16.30;49.60;;;;;;4923806;29;20036;-80
2022/03/24 08:59:56;;;;;;;19.33;16.55;;;16.40;48.00;;;;;;4925725;29;20032;-78
2022/03/24 09:02:23;;;;;;;19.38;16.38;;;16.60;48.30;;;;;;4936003;28;21145;-78
2022/03/24 09:04:50;;;;;;;20.65;16.00;;;16.70;48.40;;;;;;4951776;28;20030;-80
2022/03/24 09:07:16;;;;;;;18.65;15.73;;;16.90;47.10;;;;;;4923577;29;20039;-78
2022/03/24 09:09:43;;;;;;;17.05;14.52;;;17.00;46.30;;;;;;4933859;29;20047;-79
2022/03/24 09:12:10;;;;;;;18.73;16.02;;;17.20;46.50;;;;;;4922344;29;20051;-80
2022/03/24 09:14:38;;;;;;;17.55;15.65;;;17.30;45.70;;;;;;4927325;29;20035;-79
2022/03/24 09:17:04;;;;;;;20.35;17.48;;;17.50;45.60;;;;;;4919894;29;20043;-79
2022/03/24 09:19:32;;;;;;;23.77;17.95;;;17.50;44.00;;;;;;4920178;29;20036;-79
2022/03/24 09:22:06;;;;;;;19.88;15.45;;;17.70;44.40;;;;;;4930997;29;20046;-80
2022/03/24 09:24:33;;;;;;;21.40;17.80;;;17.80;44.60;;;;;;4936255;29;20038;-79
2022/03/24 09:27:01;;;;;;;21.20;18.02;;;17.90;44.60;;;;;;4943391;29;20059;-78
2022/03/24 09:29:27;;;;;;;25.73;19.02;;;18.00;44.50;;;;;;4927392;29;20034;-80
2022/03/24 09:31:53;;;;;;;21.85;15.75;;;18.10;44.20;;;;;;4925560;29;20498;-79
2022/03/24 09:34:20;;;;;;;24.75;15.95;;;18.10;44.10;;;;;;4923217;29;20031;-79
2022/03/24 09:36:47;;;;;;;23.50;15.82;;;18.20;44.30;;;;;;4959183;28;20039;-80
2022/03/24 09:39:15;;;;;;;30.33;17.15;;;18.20;44.60;;;;;;4930412;29;20406;-80
2022/03/24 09:41:47;;;;;;;28.73;18.83;;;18.30;44.20;;;;;;4922246;29;20062;-81
2022/03/24 09:44:14;;;;;;;29.10;18.20;;;18.30;43.60;;;;;;4936861;29;20034;-79
2022/03/24 09:46:42;;;;;;;22.63;14.90;;;18.30;43.40;;;;;;4938949;29;20298;-81
2022/03/24 09:49:10;;;;;;;22.52;16.23;;;18.30;44.10;;;;;;4928221;29;20036;-80
2022/03/24 09:51:42;;;;;;;21.33;15.13;;;18.30;44.80;;;;;;4924930;29;20618;-78
2022/03/24 09:54:11;;;;;;;23.77;16.00;;;18.50;45.00;;;;;;4922524;29;20043;-78
2022/03/24 09:56:38;;;;;;;23.48;14.65;;;18.70;44.90;;;;;;4941323;29;20035;-78
2022/03/24 09:59:07;;;;;;;21.38;14.30;;;18.70;44.90;;;;;;4926841;29;20055;-79
2022/03/24 10:01:33;;;;;;;24.45;14.13;;;18.80;45.20;;;;;;4945697;29;20383;-79
2022/03/24 10:04:09;;;;;;;24.17;14.57;;;18.90;44.90;;;;;;4940266;29;20494;-80
2022/03/24 10:06:39;;;;;;;20.80;13.23;;;18.90;44.70;;;;;;4938412;29;20039;-81
2022/03/24 10:09:06;;;;;;;18.90;13.93;;;18.90;44.80;;;;;;4939501;28;20390;-80
2022/03/24 10:11:35;;;;;;;27.08;16.85;;;18.90;44.80;;;;;;4943519;29;20032;-80
2022/03/24 10:14:03;;;;;;;30.60;17.30;;;19.00;44.60;;;;;;4942965;29;20039;-79
2022/03/24 10:16:40;;;;;;;24.90;16.50;;;19.00;44.60;;;;;;4923805;29;20487;-81
2022/03/24 10:19:09;;;;;;;25.73;16.83;;;19.00;45.10;;;;;;4942635;29;20054;-81
2022/03/24 10:21:38;;;;;;;28.88;17.38;;;19.10;45.00;;;;;;4955111;29;20038;-81
2022/03/24 10:24:19;;;;;;;21.08;15.68;;;19.20;44.40;;;;;;4938375;29;20495;-82
2022/03/24 10:26:50;;;;;;;22.87;15.87;;;19.20;44.60;;;;;;4937994;29;20039;-83
2022/03/24 10:29:22;;;;;;;29.90;18.58;;;19.50;44.70;;;;;;4939024;29;20286;-81
2022/03/24 10:31:57;;;;;;;24.23;16.95;;;19.70;43.80;;;;;;4940608;29;20054;-83
2022/03/24 10:34:30;;;;;;;26.10;18.52;;;19.80;43.70;;;;;;4943891;29;20043;-82
2022/03/24 10:37:02;;;;;;;25.83;18.75;;;20.00;44.00;;;;;;4920658;29;20043;-81
2022/03/24 10:39:33;;;;;;;27.73;16.80;;;20.30;43.40;;;;;;4923817;28;20131;-82
2022/03/24 10:42:17;;;;;;;22.58;15.57;;;20.50;43.10;;;;;;4954798;28;20359;-81
2022/03/24 10:45:03;;;;;;;20.88;15.32;;;20.70;41.90;;;;;;4938882;29;20482;-82
2022/03/24 10:47:58;;;;;;;21.15;15.85;;;20.90;41.50;;;;;;4939036;29;20517;-78
2022/03/24 10:50:39;;;;;;;18.90;14.55;;;21.10;40.50;;;;;;4936010;29;20513;-78
2022/03/24 10:53:08;;;;;;;;;;;21.40;41.20;;;;;;4928196;29;20078;-78
2022/03/24 10:55:35;;;;;;;16.48;13.48;;;21.70;40.20;;;;;;4912850;29;19926;-78
2022/03/24 10:58:09;;;;;;;16.08;13.15;;;21.90;36.60;;;;;;4936306;29;20031;-80
2022/03/24 11:00:39;;;;;;;20.58;14.98;;;22.00;35.80;;;;;;4936543;29;20042;-80
2022/03/24 11:03:09;;;;;;;21.77;16.20;;;22.10;36.00;;;;;;4924587;29;20386;-76
2022/03/24 11:05:37;;;;;;;25.77;23.13;;;22.10;36.60;;;;;;4936119;29;20066;-80
2022/03/24 11:08:10;;;;;;;20.10;17.17;;;22.10;37.20;;;;;;4938377;29;20039;-80
2022/03/24 11:10:46;;;;;;;18.25;16.35;;;22.30;36.90;;;;;;4935321;29;20056;-79
2022/03/24 11:13:27;;;;;;;20.88;16.10;;;22.60;37.10;;;;;;4950309;28;20152;-77
2022/03/24 11:15:57;;;;;;;20.63;15.38;;;22.90;35.90;;;;;;4931108;29;20479;-76
2022/03/24 11:18:25;;;;;;;19.38;16.10;;;23.10;36.10;;;;;;4942222;29;20491;-79
2022/03/24 11:21:01;;;;;;;18.83;16.52;;;23.30;35.90;;;;;;4944375;28;20514;-76
2022/03/24 11:23:30;;;;;;;26.95;18.17;;;23.50;35.40;;;;;;4934411;29;20043;-74
2022/03/24 11:25:58;;;;;;;21.98;17.30;;;23.70;34.90;;;;;;4934361;29;20042;-76
2022/03/24 11:28:25;;;;;;;15.73;13.88;;;23.70;34.80;;;;;;4939870;29;20032;-75
2022/03/24 11:30:52;;;;;;;22.75;17.23;;;23.90;34.60;;;;;;4938093;29;20043;-75
2022/03/24 11:33:20;;;;;;;18.70;16.40;;;24.20;33.70;;;;;;4939518;29;20031;-78
2022/03/24 11:35:49;;;;;;;42.55;32.90;;;24.20;32.70;;;;;;4934574;29;20070;-79
2022/03/24 11:38:16;;;;;;;22.02;18.67;;;24.30;33.60;;;;;;4946425;29;20036;-79
2022/03/24 11:40:42;;;;;;;23.13;18.50;;;24.60;33.40;;;;;;4938920;29;20038;-79
2022/03/24 11:43:14;;;;;;;27.00;21.75;;;24.90;32.90;;;;;;4937711;29;20032;-76
2022/03/24 11:45:52;;;;;;;24.85;21.42;;;25.20;33.40;;;;;;4937548;29;20028;-79
2022/03/24 11:48:40;;;;;;;26.00;19.70;;;25.50;33.00;;;;;;4934490;29;20045;-78
2022/03/24 11:51:21;;;;;;;25.38;18.85;;;25.80;32.70;;;;;;4934212;29;20035;-78
2022/03/24 11:54:02;;;;;;;22.50;19.48;;;26.00;32.70;;;;;;4935429;29;20050;-80
2022/03/24 11:56:28;;;;;;;19.20;16.95;;;26.10;31.40;;;;;;4946634;28;20035;-80
2022/03/24 11:58:55;;;;;;;18.55;16.15;;;26.10;31.70;;;;;;4915468;29;20036;-79
2022/03/24 12:01:24;;;;;;;19.70;14.57;;;26.40;31.80;;;;;;4934740;29;20494;-79
2022/03/24 12:04:08;;;;;;;23.65;18.63;;;26.60;31.90;;;;;;4950770;28;20450;-81
2022/03/24 12:06:43;;;;;;;18.27;15.77;;;26.80;30.60;;;;;;4936763;28;20047;-83
2022/03/24 12:09:15;;;;;;;20.10;15.98;;;26.70;30.80;;;;;;4931974;29;20043;-82
2022/03/24 12:11:45;;;;;;;19.77;15.48;;;26.80;30.00;;;;;;4935855;28;20684;-83
2022/03/24 12:14:45;;;;;;;21.93;14.40;;;26.80;30.10;;;;;;4912454;28;20047;-79
2022/03/24 12:17:25;;;;;;;19.17;16.63;;;27.10;30.30;;;;;;4923314;28;20054;-82
2022/03/24 12:19:56;;;;;;;17.08;14.45;;;27.30;29.70;;;;;;4914948;29;20055;-79
2022/03/24 12:22:26;;;;;;;17.73;15.32;;;27.40;29.70;;;;;;4946234;28;20042;-79
2022/03/24 12:24:59;;;;;;;16.23;14.27;;;27.60;29.50;;;;;;4940760;29;20034;-80
2022/03/24 12:27:30;;;;;;;15.48;12.98;;;27.60;29.20;;;;;;4936393;29;20058;-83
2022/03/24 12:30:18;;;;;;;14.48;11.50;;;27.80;28.40;;;;;;4925317;29;20050;-77
2022/03/24 12:33:09;;;;;;;15.95;12.65;;;27.80;28.70;;;;;;4937378;28;20035;-80
2022/03/24 12:35:42;;;;;;;16.25;12.38;;;28.00;28.60;;;;;;4937245;29;20051;-80
2022/03/24 12:38:34;;;;;;;14.68;11.30;;;28.30;28.80;;;;;;4952000;28;20023;-78
2022/03/24 12:41:05;;;;;;;15.88;13.02;;;28.60;28.90;;;;;;4919334;28;20031;-79
2022/03/24 12:43:51;;;;;;;21.80;13.40;;;28.60;28.40;;;;;;4936982;28;20360;-78
2022/03/24 12:46:27;;;;;;;16.00;12.43;;;28.80;28.30;;;;;;4935142;28;20035;-77